Hooper Bay, AK

6:18 PM AKST on November 18, 2017 (GMT -0900)
Hooper Bay

Weather History for PAHP - April, 2014

Change the Weather History Date:

Friday, April 18, 2014

  Actual Average Record
Temperature  
Mean Temperature 48 °F -  
Max Temperature 62 °F 28 °F 62 °F (2014)
Min Temperature 35 °F 20 °F -5 °F (2002)
Degree Days  
Heating Degree Days 16    
Moisture  
Dew Point 30 °F    
Average Humidity 48    
Maximum Humidity 87    
Minimum Humidity 31    
Precipitation  
Precipitation 0.07 in - - ()
Sea Level Pressure  
Sea Level Pressure 29.39 in    
Wind  
Wind Speed 6 mph (NNE)    
Max Wind Speed 14 mph    
Max Gust Speed 18 mph    
Visibility 10 miles    
Events      
Averages and records for this station are not official NWS values.
T = Trace of Precipitation, MM = Missing Value Source: NWS Daily Summary

Daily Weather History Graph

Daily Weather History Graph

Search for Another Location

Airport or City:

Trip Planner

Search our weather history database for the weather conditions in past years. The results will help you decide how hot, cold, wet, or windy it might be!

Date:

Astronomy

Apr. 18, 2014 Rise Set
Actual Time 7:32 AM AKDT 10:36 PM AKDT
Civil Twilight 6:42 AM AKDT 11:27 PM AKDT
Nautical Twilight 5:31 AM AKDT 12:39 AM AKDT
Astronomical Twilight 3:36 AM AKDT 2:31 AM AKDT
Moon 2:14 AM AKDT (4/18) 9:23 AM AKDT (4/18)
Length of Visible Light 16h 45m
Length of Day
15h 04m
Waning Gibbous, 86% of the Moon is Illuminated
Apr 18
Waning Gibbous
Apr 21
Last Quarter
Apr 28
New
May 6
First Quarter
May 14
Full

Hourly Weather History & Observations

Time (AKDT) Temp. Windchill Dew Point Humidity Pressure Visibility Wind Dir Wind Speed Gust Speed Precip Events Conditions
12:16 AM 48.2 °F - 30.2 °F 50% 29.38 in 10.0 mi NNE 6.9 mph - N/A   Mostly Cloudy
12:36 AM 48.2 °F - 28.4 °F 46% 29.38 in 10.0 mi North 8.1 mph - N/A   Overcast
12:56 AM 48.2 °F - 30.2 °F 50% 29.38 in 10.0 mi NNE 9.2 mph - N/A   Overcast
1:16 AM 48.2 °F - 28.4 °F 46% 29.38 in 10.0 mi North 6.9 mph - N/A   Mostly Cloudy
1:36 AM 48.2 °F - 28.4 °F 46% 29.38 in 10.0 mi North 9.2 mph - N/A   Mostly Cloudy
1:56 AM 48.2 °F - 28.4 °F 46% 29.37 in 10.0 mi NNE 9.2 mph - N/A   Mostly Cloudy
2:16 AM 48.2 °F - 28.4 °F 46% 29.37 in 10.0 mi NNE 8.1 mph - N/A   Mostly Cloudy
2:36 AM 46.4 °F 41.5 °F 28.4 °F 50% 29.37 in 10.0 mi NNE 10.4 mph - N/A   Overcast
2:56 AM 46.4 °F 43.5 °F 28.4 °F 50% 29.37 in 10.0 mi North 5.8 mph - N/A   Overcast
3:16 AM 46.4 °F - 28.4 °F 50% 29.37 in 10.0 mi Calm Calm - N/A   Scattered Clouds
3:36 AM 46.4 °F 43.5 °F 28.4 °F 50% 29.37 in 10.0 mi North 5.8 mph - N/A   Mostly Cloudy
3:56 AM 46.4 °F 44.3 °F 28.4 °F 50% 29.37 in 10.0 mi North 4.6 mph - N/A   Overcast
4:16 AM 46.4 °F 43.5 °F 28.4 °F 50% 29.36 in 10.0 mi North 5.8 mph - N/A   Overcast
4:36 AM 48.2 °F - 28.4 °F 46% 29.36 in 10.0 mi North 4.6 mph - N/A   Overcast
4:56 AM 48.2 °F - 28.4 °F 46% 29.36 in 10.0 mi North 5.8 mph - N/A   Overcast
5:16 AM 48.2 °F - 28.4 °F 46% 29.36 in 10.0 mi NNE 6.9 mph - N/A   Overcast
5:36 AM 48.2 °F - 28.4 °F 46% 29.36 in 10.0 mi North 3.5 mph - N/A   Overcast
5:56 AM 48.2 °F - 28.4 °F 46% 29.36 in 10.0 mi ENE 3.5 mph - N/A   Overcast
6:16 AM 50.0 °F - 28.4 °F 43% 29.35 in 10.0 mi NNW 3.5 mph - N/A   Overcast
6:36 AM 48.2 °F - 28.4 °F 46% 29.35 in 10.0 mi Calm Calm - N/A   Overcast
6:56 AM 48.2 °F - 28.4 °F 46% 29.36 in 10.0 mi NNW 5.8 mph - N/A   Overcast
7:16 AM 48.2 °F - 28.4 °F 46% 29.36 in 10.0 mi NNW 8.1 mph - N/A   Overcast
7:36 AM 48.2 °F - 28.4 °F 46% 29.36 in 9.0 mi North 4.6 mph - N/A   Overcast
7:56 AM 50.0 °F - 28.4 °F 43% 29.36 in 10.0 mi NW 5.8 mph - N/A   Overcast
8:16 AM 50.0 °F - 28.4 °F 43% 29.36 in 10.0 mi NNW 6.9 mph - N/A   Overcast
8:36 AM 51.8 °F - 28.4 °F 41% 29.36 in 10.0 mi NNW 5.8 mph - N/A   Overcast
8:56 AM 50.0 °F - 28.4 °F 43% 29.37 in 10.0 mi NNW 5.8 mph - N/A   Overcast
9:16 AM 50.0 °F - 28.4 °F 43% 29.37 in 10.0 mi NNW 5.8 mph - N/A   Overcast
9:36 AM 50.0 °F - 28.4 °F 43% 29.36 in 10.0 mi NW 6.9 mph - N/A   Mostly Cloudy
9:56 AM 50.0 °F - 28.4 °F 43% 29.37 in 10.0 mi North 4.6 mph - N/A   Overcast
10:16 AM 50.0 °F - 28.4 °F 43% 29.37 in 10.0 mi Calm Calm - N/A   Mostly Cloudy
10:36 AM 50.0 °F - 28.4 °F 43% 29.37 in 10.0 mi North 4.6 mph - N/A   Mostly Cloudy
10:56 AM 50.0 °F - 30.2 °F 47% 29.37 in 10.0 mi Calm Calm - N/A   Overcast
11:16 AM 51.8 °F - 30.2 °F 44% 29.37 in 10.0 mi North 4.6 mph - N/A   Mostly Cloudy
11:36 AM 53.6 °F - 32.0 °F 44% 29.37 in 10.0 mi North 8.1 mph - N/A   Overcast
11:56 AM 53.6 °F - 32.0 °F 44% 29.38 in 10.0 mi North 6.9 mph - N/A   Overcast
12:16 PM 53.6 °F - 30.2 °F 41% 29.38 in 10.0 mi North 6.9 mph - N/A   Overcast
12:36 PM 55.4 °F - 32.0 °F 41% 29.38 in 10.0 mi Calm Calm - N/A   Overcast
12:56 PM 57.2 °F - 32.0 °F 38% 29.38 in 10.0 mi Calm Calm - N/A   Mostly Cloudy
1:16 PM 57.2 °F - 33.8 °F 41% 29.38 in 10.0 mi Calm Calm - N/A   Overcast
1:36 PM 57.2 °F - 30.2 °F 36% 29.38 in 10.0 mi Calm Calm - N/A   Scattered Clouds
1:56 PM 57.2 °F - 30.2 °F 36% 29.39 in 10.0 mi Calm Calm - N/A   Clear
2:16 PM 59.0 °F - 28.4 °F 31% 29.39 in 10.0 mi Calm Calm - N/A   Clear
2:36 PM 60.8 °F - 33.8 °F 36% 29.39 in 10.0 mi NW 3.5 mph - N/A   Clear
2:56 PM 62.6 °F - 33.8 °F 34% 29.39 in 10.0 mi NNW 3.5 mph - N/A   Clear
3:16 PM 60.8 °F - 32.0 °F 34% 29.40 in 10.0 mi NW 3.5 mph - N/A   Clear
3:36 PM 59.0 °F - 32.0 °F 36% 29.40 in 10.0 mi Calm Calm - N/A   Clear
3:56 PM 62.6 °F - 33.8 °F 34% 29.40 in 10.0 mi Calm Calm - N/A   Clear
4:16 PM 60.8 °F - 30.2 °F 31% 29.40 in 10.0 mi ESE 3.5 mph - N/A   Clear
4:36 PM 55.4 °F - 33.8 °F 44% 29.40 in 10.0 mi NE 6.9 mph - N/A   Clear
4:56 PM 60.8 °F - 30.2 °F 31% 29.40 in 10.0 mi NE 6.9 mph - N/A   Partly Cloudy
5:16 PM 60.8 °F - 30.2 °F 31% 29.40 in 10.0 mi NE 9.2 mph - N/A   Clear
5:36 PM 57.2 °F - 30.2 °F 36% 29.40 in 10.0 mi NNE 5.8 mph - N/A   Clear
5:56 PM 55.4 °F - 33.8 °F 44% 29.39 in 10.0 mi North 10.4 mph - N/A   Clear
6:16 PM 53.6 °F - 32.0 °F 44% 29.39 in 10.0 mi North 9.2 mph - N/A   Clear
6:36 PM 55.4 °F - 32.0 °F 41% 29.39 in 10.0 mi NNW 8.1 mph - N/A   Clear
6:56 PM 57.2 °F - 33.8 °F 41% 29.40 in 10.0 mi North 6.9 mph - N/A   Clear
7:16 PM 55.4 °F - 32.0 °F 41% 29.40 in 10.0 mi North 9.2 mph - N/A   Clear
7:36 PM 55.4 °F - 30.2 °F 38% 29.40 in 10.0 mi North 9.2 mph - N/A   Clear
7:56 PM 55.4 °F - 32.0 °F 41% 29.40 in 10.0 mi North 10.4 mph - N/A   Mostly Cloudy
8:16 PM 55.4 °F - 32.0 °F 41% 29.42 in 10.0 mi East 11.5 mph 18.4 mph N/A   Overcast
8:36 PM 48.2 °F - 30.2 °F 50% 29.42 in 10.0 mi ESE 8.1 mph - N/A   Overcast
8:56 PM 46.4 °F 41.5 °F 33.8 °F 62% 29.43 in 10.0 mi East 10.4 mph - N/A   Mostly Cloudy
9:16 PM 39.2 °F 32.0 °F 32.0 °F 75% 29.43 in 5.0 mi ESE 11.5 mph - 0.05 in   Overcast
9:36 PM 39.2 °F 35.0 °F 33.8 °F 81% 29.42 in 9.0 mi ENE 5.8 mph - 0.07 in   Overcast
9:56 PM 39.2 °F 35.0 °F 33.8 °F 81% 29.42 in 10.0 mi NE 5.8 mph - 0.07 in   Overcast
10:16 PM 37.4 °F 32.1 °F 33.8 °F 87% 29.43 in 10.0 mi NNE 6.9 mph - N/A   Overcast
10:36 PM 37.4 °F 30.8 °F 30.2 °F 75% 29.43 in 10.0 mi NE 9.2 mph - N/A   Overcast
10:56 PM 37.4 °F 29.3 °F 32.0 °F 81% 29.43 in 10.0 mi NE 12.7 mph - N/A   Overcast
11:16 PM 35.6 °F 26.6 °F 32.0 °F 87% 29.43 in 10.0 mi ENE 13.8 mph - N/A   Overcast
11:36 PM 37.4 °F 29.3 °F 33.8 °F 87% 29.44 in 10.0 mi ENE 12.7 mph - N/A   Mostly Cloudy
11:56 PM 37.4 °F 30.8 °F 32.0 °F 81% 29.43 in 10.0 mi NNE 9.2 mph - N/A   Overcast